createdAt,value
2016-12-05T00:00:46.471Z,101406
2016-12-05T00:01:46.447Z,101399
2016-12-05T00:02:46.539Z,101392
2016-12-05T00:03:46.619Z,101400
2016-12-05T00:04:48.071Z,101399
2016-12-05T00:05:48.126Z,101399
2016-12-05T00:06:46.820Z,101405
2016-12-05T00:07:46.839Z,101398
2016-12-05T00:08:48.273Z,101402
2016-12-05T00:09:47.044Z,101403
2016-12-05T00:10:47.004Z,101399
2016-12-05T00:11:47.003Z,101407
2016-12-05T00:12:47.075Z,101403
2016-12-05T00:13:47.171Z,101406
2016-12-05T00:14:47.140Z,101408
2016-12-05T00:15:47.176Z,101410
2016-12-05T00:16:48.532Z,101406
2016-12-05T00:17:47.202Z,101407
2016-12-05T00:18:48.620Z,101410
2016-12-05T00:19:48.601Z,101409
2016-12-05T00:20:47.339Z,101407
2016-12-05T00:21:47.361Z,101406
2016-12-05T00:22:48.676Z,101403
2016-12-05T00:23:47.384Z,101409
2016-12-05T00:24:47.486Z,101400
2016-12-05T00:25:48.904Z,101403
2016-12-05T00:26:48.990Z,101410
2016-12-05T00:27:48.954Z,101403
2016-12-05T00:28:48.956Z,101407
2016-12-05T00:29:47.673Z,101406
2016-12-05T00:30:49.131Z,101407
2016-12-05T00:31:47.836Z,101410
2016-12-05T00:32:49.230Z,101404
2016-12-05T00:33:47.892Z,101404
2016-12-05T00:34:47.964Z,101406
2016-12-05T00:35:48.013Z,101390
2016-12-05T00:36:49.379Z,101403
2016-12-05T00:37:49.476Z,101405
2016-12-05T00:38:49.433Z,101397
2016-12-05T00:39:48.077Z,101397
2016-12-05T00:40:49.557Z,101397
2016-12-05T00:41:48.205Z,101399
2016-12-05T00:42:49.556Z,101395
2016-12-05T00:43:49.719Z,101404
2016-12-05T00:44:49.761Z,101402
2016-12-05T00:45:49.838Z,101404
2016-12-05T00:46:48.580Z,101404
2016-12-05T00:47:49.932Z,101405
2016-12-05T00:48:48.685Z,101400
2016-12-05T00:49:48.741Z,101403
2016-12-05T00:50:48.819Z,101404
2016-12-05T00:51:48.883Z,101403
2016-12-05T00:52:48.900Z,101393
2016-12-05T00:53:50.316Z,101405
2016-12-05T00:54:50.328Z,101402
2016-12-05T00:55:49.008Z,101408
2016-12-05T00:56:49.000Z,101417
2016-12-05T00:57:49.131Z,101409
2016-12-05T00:58:49.116Z,101414
2016-12-05T00:59:50.505Z,101404
2016-12-05T01:00:50.521Z,101408
2016-12-05T01:01:49.249Z,101405
2016-12-05T01:02:49.346Z,101407
2016-12-05T01:03:50.738Z,101405
2016-12-05T01:04:49.473Z,101406
2016-12-05T01:05:49.452Z,101408
2016-12-05T01:06:50.891Z,101402
2016-12-05T01:07:49.602Z,101401
2016-12-05T01:08:50.969Z,101399
2016-12-05T01:09:49.725Z,101398
2016-12-05T01:10:49.672Z,101403
2016-12-05T01:11:49.708Z,101396
2016-12-05T01:12:49.838Z,101398
2016-12-05T01:13:51.239Z,101402
2016-12-05T01:14:51.334Z,101394
2016-12-05T01:15:50.020Z,101398
2016-12-05T01:16:50.081Z,101396
2016-12-05T01:17:51.381Z,101392
2016-12-05T01:18:50.089Z,101394
2016-12-05T01:19:51.491Z,101392
2016-12-05T01:20:51.462Z,101398
2016-12-05T01:21:51.552Z,101388
2016-12-05T01:22:51.536Z,101395
2016-12-05T01:23:51.592Z,101392
2016-12-05T01:24:51.661Z,101395
2016-12-05T01:25:50.337Z,101397
2016-12-05T01:26:50.490Z,101396
2016-12-05T01:27:51.834Z,101392
2016-12-05T01:28:50.544Z,101398
2016-12-05T01:29:51.883Z,101398
2016-12-05T01:30:52.001Z,101396
2016-12-05T01:31:52.014Z,101393
2016-12-05T01:32:52.075Z,101390
2016-12-05T01:33:50.748Z,101389
2016-12-05T01:34:50.797Z,101382
2016-12-05T01:35:52.264Z,101390
2016-12-05T01:36:50.992Z,101393
2016-12-05T01:37:52.423Z,101394
2016-12-05T01:38:51.179Z,101389
2016-12-05T01:39:51.254Z,101403
2016-12-05T01:40:51.336Z,101400
2016-12-05T01:41:52.675Z,101400
2016-12-05T01:42:51.373Z,101404
2016-12-05T01:43:52.901Z,101403
2016-12-05T01:44:52.854Z,101400
2016-12-05T01:45:51.512Z,101396
2016-12-05T01:46:52.931Z,101401
2016-12-05T01:47:51.633Z,101402
2016-12-05T01:48:51.656Z,101402
2016-12-05T01:49:51.822Z,101397
2016-12-05T01:50:53.217Z,101404
2016-12-05T01:51:53.222Z,101412
2016-12-05T01:52:53.282Z,101406
2016-12-05T01:53:51.988Z,101408
2016-12-05T01:54:52.089Z,101407
2016-12-05T01:55:53.487Z,101405
2016-12-05T01:56:53.560Z,101408
2016-12-05T01:57:52.229Z,101401
2016-12-05T01:58:52.347Z,101405
2016-12-05T01:59:52.410Z,101397
2016-12-05T02:00:53.776Z,101399
2016-12-05T02:01:52.501Z,101395
2016-12-05T02:02:53.909Z,101396
2016-12-05T02:03:52.574Z,101395
2016-12-05T02:04:53.997Z,101393
2016-12-05T02:05:52.688Z,101387
2016-12-05T02:06:54.055Z,101388
2016-12-05T02:07:52.697Z,101397
2016-12-05T02:08:54.075Z,101395
2016-12-05T02:09:54.104Z,101396
2016-12-05T02:10:54.227Z,101395
2016-12-05T02:11:54.216Z,101395
2016-12-05T02:12:52.960Z,101396
2016-12-05T02:13:54.332Z,101394
2016-12-05T02:14:53.023Z,101388
2016-12-05T02:15:53.074Z,101387
2016-12-05T02:16:53.161Z,101391
2016-12-05T02:17:53.232Z,101386
2016-12-05T02:18:54.529Z,101387
2016-12-05T02:19:53.300Z,101380
2016-12-05T02:20:53.347Z,101384
2016-12-05T02:21:53.373Z,101386
2016-12-05T02:22:53.462Z,101384
2016-12-05T02:23:54.891Z,101379
2016-12-05T02:24:53.615Z,101378
2016-12-05T02:25:53.678Z,101370
2016-12-05T02:26:53.727Z,101375
2016-12-05T02:27:53.759Z,101370
2016-12-05T02:28:53.796Z,101366
2016-12-05T02:29:53.833Z,101365
2016-12-05T02:30:55.223Z,101366
2016-12-05T02:31:53.917Z,101367
2016-12-05T02:32:55.297Z,101364
2016-12-05T02:33:55.355Z,101358
2016-12-05T02:34:55.375Z,101361
2016-12-05T02:35:54.044Z,101365
2016-12-05T02:36:55.471Z,101362
2016-12-05T02:37:55.574Z,101361
2016-12-05T02:38:54.232Z,101360
2016-12-05T02:39:54.332Z,101356
2016-12-05T02:40:54.385Z,101346
2016-12-05T02:41:55.747Z,101347
2016-12-05T02:42:55.707Z,101347
2016-12-05T02:43:55.713Z,101344
2016-12-05T02:44:54.427Z,101347
2016-12-05T02:45:55.799Z,101343
2016-12-05T02:46:55.866Z,101339
2016-12-05T02:47:54.530Z,101337
2016-12-05T02:48:54.645Z,101341
2016-12-05T02:49:56.038Z,101340
2016-12-05T02:50:56.208Z,101340
2016-12-05T02:51:54.878Z,101341
2016-12-05T02:52:54.929Z,101339
2016-12-05T02:53:54.946Z,101339
2016-12-05T02:54:55.041Z,101336
2016-12-05T02:55:55.012Z,101341
2016-12-05T02:56:56.460Z,101340
2016-12-05T02:57:55.084Z,101331
2016-12-05T02:58:56.554Z,101338
2016-12-05T02:59:55.182Z,101337
2016-12-05T03:00:55.299Z,101337
2016-12-05T03:01:56.790Z,101331
2016-12-05T03:02:55.453Z,101333
2016-12-05T03:03:56.850Z,101335
2016-12-05T03:04:56.811Z,101337
2016-12-05T03:05:56.898Z,101334
2016-12-05T03:06:55.597Z,101341
2016-12-05T03:07:57.072Z,101341
2016-12-05T03:08:57.188Z,101340
2016-12-05T03:09:56.924Z,101340
2016-12-05T03:10:56.092Z,101342
2016-12-05T03:11:56.045Z,101337
2016-12-05T03:12:56.842Z,101336
2016-12-05T03:13:56.061Z,101338
2016-12-05T03:14:57.456Z,101334
2016-12-05T03:15:56.120Z,101335
2016-12-05T03:16:56.863Z,101331
2016-12-05T03:17:57.743Z,101337
2016-12-05T03:18:57.824Z,101336
2016-12-05T03:19:56.458Z,101334
2016-12-05T03:20:56.483Z,101336
2016-12-05T03:21:56.611Z,101335
2016-12-05T03:22:56.571Z,101334
2016-12-05T03:23:56.599Z,101336
2016-12-05T03:24:56.791Z,101330
2016-12-05T03:25:56.775Z,101334
2016-12-05T03:26:56.744Z,101332
2016-12-05T03:27:58.219Z,101325
2016-12-05T03:28:58.236Z,101333
2016-12-05T03:29:58.289Z,101322
2016-12-05T03:30:58.299Z,101332
2016-12-05T03:31:58.522Z,101324
2016-12-05T03:32:57.292Z,101335
2016-12-05T03:33:58.653Z,101335
2016-12-05T03:34:58.642Z,101332
2016-12-05T03:35:57.330Z,101331
2016-12-05T03:36:58.063Z,101329
2016-12-05T03:37:57.380Z,101333
2016-12-05T03:38:57.379Z,101325
2016-12-05T03:39:57.479Z,101326
2016-12-05T03:40:58.785Z,101325
2016-12-05T03:41:57.512Z,101323
2016-12-05T03:42:58.912Z,101321
2016-12-05T03:43:57.634Z,101324
2016-12-05T03:44:59.004Z,101322
2016-12-05T03:45:57.728Z,101315
2016-12-05T03:46:57.774Z,101318
2016-12-05T03:47:59.160Z,101323
2016-12-05T03:48:57.865Z,101319
2016-12-05T03:49:59.216Z,101325
2016-12-05T03:50:59.348Z,101316
2016-12-05T03:51:58.102Z,101326
2016-12-05T03:52:59.522Z,101328
2016-12-05T03:53:58.225Z,101324
2016-12-05T03:54:59.623Z,101326
2016-12-05T03:55:59.640Z,101325
2016-12-05T03:56:59.660Z,101322
2016-12-05T03:57:59.697Z,101319
2016-12-05T03:58:58.359Z,101318
2016-12-05T03:59:58.426Z,101319
2016-12-05T04:00:59.905Z,101319
2016-12-05T04:01:59.890Z,101315
2016-12-05T04:02:59.876Z,101315
2016-12-05T04:03:58.618Z,101315
2016-12-05T04:04:58.743Z,101315
2016-12-05T04:05:58.833Z,101309
2016-12-05T04:06:58.872Z,101314
2016-12-05T04:08:00.297Z,101316
2016-12-05T04:08:59.031Z,101317
2016-12-05T04:10:00.506Z,101317
2016-12-05T04:11:00.587Z,101315
2016-12-05T04:11:59.263Z,101318
2016-12-05T04:12:59.327Z,101316
2016-12-05T04:13:59.291Z,101316
2016-12-05T04:14:59.442Z,101317
2016-12-05T04:15:59.459Z,101308
2016-12-05T04:17:00.905Z,101310
2016-12-05T04:17:59.552Z,101319
2016-12-05T04:19:01.029Z,101320
2016-12-05T04:19:59.695Z,101316
2016-12-05T04:20:59.749Z,101315
2016-12-05T04:21:59.886Z,101318
2016-12-05T04:23:01.212Z,101314
2016-12-05T04:23:59.952Z,101311
2016-12-05T04:24:59.960Z,101303
2016-12-05T04:26:01.384Z,101312
2016-12-05T04:27:00.057Z,101303
2016-12-05T04:28:01.485Z,101304
2016-12-05T04:29:00.147Z,101300
2016-12-05T04:30:00.274Z,101305
2016-12-05T04:31:01.621Z,101295
2016-12-05T04:32:00.354Z,101297
2016-12-05T04:33:00.352Z,101302
2016-12-05T04:34:00.449Z,101302
2016-12-05T04:35:00.609Z,101306
2016-12-05T04:36:00.635Z,101305
2016-12-05T04:37:02.098Z,101308
2016-12-05T04:38:02.136Z,101306
2016-12-05T04:39:02.167Z,101298
2016-12-05T04:40:02.189Z,101308
2016-12-05T04:41:02.191Z,101306
2016-12-05T04:42:02.210Z,101308
2016-12-05T04:43:00.928Z,101307
2016-12-05T04:44:02.371Z,101305
2016-12-05T04:45:02.330Z,101307
2016-12-05T04:46:02.340Z,101308
2016-12-05T04:47:01.093Z,101312
2016-12-05T04:48:02.426Z,101313
2016-12-05T04:49:02.496Z,101306
2016-12-05T04:50:01.147Z,101302
2016-12-05T04:51:01.149Z,101300
2016-12-05T04:52:02.566Z,101298
2016-12-05T04:53:01.334Z,101295
2016-12-05T04:54:02.651Z,101304
2016-12-05T04:55:02.684Z,101304
2016-12-05T04:56:01.347Z,101301
2016-12-05T04:57:02.728Z,101300
2016-12-05T04:58:02.767Z,101304
2016-12-05T04:59:02.860Z,101307
2016-12-05T05:00:02.887Z,101312
2016-12-05T05:01:03.005Z,101312
2016-12-05T05:02:01.682Z,101299
2016-12-05T05:03:01.732Z,101297
2016-12-05T05:04:03.111Z,101298
2016-12-05T05:05:03.220Z,101296
2016-12-05T05:06:03.220Z,101299
2016-12-05T05:07:01.871Z,101302
2016-12-05T05:08:03.301Z,101299
2016-12-05T05:09:03.356Z,101300
2016-12-05T05:10:01.976Z,101302
2016-12-05T05:11:02.062Z,101300
2016-12-05T05:12:02.175Z,101304
2016-12-05T05:13:02.254Z,101304
2016-12-05T05:14:03.616Z,101306
2016-12-05T05:15:03.698Z,101305
2016-12-05T05:16:03.661Z,101308
2016-12-05T05:17:03.732Z,101304
2016-12-05T05:18:03.693Z,101314
2016-12-05T05:19:02.430Z,101307
2016-12-05T05:20:03.838Z,101310
2016-12-05T05:21:02.474Z,101311
2016-12-05T05:22:02.542Z,101308
2016-12-05T05:23:02.644Z,101316
2016-12-05T05:24:04.043Z,101310
2016-12-05T05:25:02.645Z,101308
2016-12-05T05:26:04.044Z,101314
2016-12-05T05:27:04.082Z,101310
2016-12-05T05:28:04.117Z,101315
2016-12-05T05:29:02.866Z,101314
2016-12-05T05:30:02.927Z,101316
2016-12-05T05:31:04.254Z,101320
2016-12-05T05:32:04.351Z,101312
2016-12-05T05:33:03.064Z,101320
2016-12-05T05:34:04.479Z,101320
2016-12-05T05:35:03.095Z,101324
2016-12-05T05:36:04.546Z,101322
2016-12-05T05:37:03.139Z,101323
2016-12-05T05:38:04.554Z,101328
2016-12-05T05:39:03.235Z,101319
2016-12-05T05:40:03.386Z,101326
2016-12-05T05:41:03.419Z,101331
2016-12-05T05:42:04.752Z,101331
2016-12-05T05:43:05.347Z,101319
2016-12-05T05:44:04.844Z,101313
2016-12-05T05:45:04.955Z,101324
2016-12-05T05:46:03.638Z,101321
2016-12-05T05:47:05.069Z,101320
2016-12-05T05:48:05.049Z,101317
2016-12-05T05:49:05.099Z,101321
2016-12-05T05:50:03.818Z,101321
2016-12-05T05:51:03.798Z,101323
2016-12-05T05:52:03.896Z,101321
2016-12-05T05:53:05.307Z,101328
2016-12-05T05:54:05.260Z,101327
2016-12-05T05:55:05.399Z,101329
2016-12-05T05:56:04.081Z,101327
2016-12-05T05:57:05.448Z,101331
2016-12-05T05:58:05.496Z,101327
2016-12-05T05:59:05.588Z,101325
2016-12-05T06:00:04.284Z,101330
2016-12-05T06:01:05.694Z,101329
2016-12-05T06:02:04.308Z,101327
2016-12-05T06:03:05.731Z,101323
2016-12-05T06:04:05.804Z,101325
2016-12-05T06:05:05.876Z,101326
2016-12-05T06:06:04.552Z,101324
2016-12-05T06:07:04.547Z,101317
2016-12-05T06:08:04.646Z,101322
2016-12-05T06:09:06.498Z,101324
2016-12-05T06:10:04.785Z,101327
2016-12-05T06:11:04.805Z,101325
2016-12-05T06:12:06.160Z,101317
2016-12-05T06:13:04.892Z,101325
2016-12-05T06:14:06.402Z,101329
2016-12-05T06:15:06.541Z,101327
2016-12-05T06:16:06.551Z,101329
2016-12-05T06:17:06.601Z,101332
2016-12-05T06:18:06.726Z,101323
2016-12-05T06:19:06.745Z,101331
2016-12-05T06:20:06.781Z,101334
2016-12-05T06:21:05.503Z,101333
2016-12-05T06:22:06.789Z,101337
2016-12-05T06:23:06.936Z,101335
2016-12-05T06:24:05.655Z,101338
2016-12-05T06:25:07.275Z,101331
2016-12-05T06:26:07.266Z,101333
2016-12-05T06:27:05.955Z,101342
2016-12-05T06:28:07.241Z,101341
2016-12-05T06:29:07.220Z,101341
2016-12-05T06:30:07.260Z,101345
2016-12-05T06:31:05.957Z,101344
2016-12-05T06:32:06.046Z,101340
2016-12-05T06:33:06.097Z,101345
2016-12-05T06:34:06.114Z,101347
2016-12-05T06:35:06.102Z,101345
2016-12-05T06:36:06.216Z,101343
2016-12-05T06:37:07.587Z,101340
2016-12-05T06:38:07.661Z,101344
2016-12-05T06:39:07.695Z,101344
2016-12-05T06:40:06.394Z,101342
2016-12-05T06:41:08.420Z,101340
2016-12-05T06:42:07.074Z,101344
2016-12-05T06:43:07.844Z,101341
2016-12-05T06:44:06.473Z,101347
2016-12-05T06:45:07.930Z,101339
2016-12-05T06:46:07.930Z,101346
2016-12-05T06:47:07.322Z,101347
2016-12-05T06:48:08.132Z,101346
2016-12-05T06:49:06.782Z,101349
2016-12-05T06:50:08.226Z,101352
2016-12-05T06:51:08.187Z,101354
2016-12-05T06:52:08.203Z,101358
2016-12-05T06:53:07.622Z,101355
2016-12-05T06:54:08.351Z,101358
2016-12-05T06:55:07.081Z,101358
2016-12-05T06:56:07.087Z,101357
2016-12-05T06:57:07.114Z,101361
2016-12-05T06:58:07.307Z,101360
2016-12-05T06:59:07.269Z,101360
2016-12-05T07:00:08.716Z,101363
2016-12-05T07:01:07.467Z,101365
2016-12-05T07:02:08.815Z,101363
2016-12-05T07:03:08.849Z,101366
2016-12-05T07:04:08.912Z,101360
2016-12-05T07:05:07.543Z,101352
2016-12-05T07:06:08.965Z,101362
2016-12-05T07:07:09.015Z,101356
2016-12-05T07:08:09.039Z,101352
2016-12-05T07:09:09.002Z,101354
2016-12-05T07:10:09.084Z,101354
2016-12-05T07:11:09.209Z,101355
2016-12-05T07:12:07.814Z,101358
2016-12-05T07:13:07.904Z,101358
2016-12-05T07:14:09.317Z,101360
2016-12-05T07:15:09.369Z,101356
2016-12-05T07:16:08.078Z,101361
2016-12-05T07:17:09.433Z,101354
2016-12-05T07:18:09.021Z,101352
2016-12-05T07:19:09.471Z,101354
2016-12-05T07:20:10.038Z,101367
2016-12-05T07:21:08.631Z,101370
2016-12-05T07:22:10.132Z,101367
2016-12-05T07:23:10.202Z,101362
2016-12-05T07:24:10.205Z,101365
2016-12-05T07:25:08.861Z,101362
2016-12-05T07:26:10.334Z,101367
2016-12-05T07:27:08.954Z,101375
2016-12-05T07:28:08.985Z,101369
2016-12-05T07:29:09.125Z,101366
2016-12-05T07:30:08.903Z,101363
2016-12-05T07:31:09.320Z,101367
2016-12-05T07:32:09.202Z,101372
2016-12-05T07:34:55.235Z,101369
2016-12-05T07:35:55.335Z,101364
2016-12-05T07:36:55.909Z,101365
2016-12-05T07:37:55.985Z,101370
2016-12-05T07:38:56.061Z,101370
2016-12-05T07:39:55.374Z,101368
2016-12-05T07:40:54.855Z,101370
2016-12-05T07:41:54.784Z,101370
2016-12-05T07:42:54.865Z,101370
2016-12-05T07:43:56.238Z,101368
2016-12-05T07:44:56.322Z,101358
2016-12-05T07:45:55.041Z,101367
2016-12-05T07:46:55.059Z,101366
2016-12-05T07:47:56.470Z,101365
2016-12-05T07:48:56.576Z,101356
2016-12-05T07:49:56.572Z,101362
2016-12-05T07:50:56.695Z,101360
2016-12-05T07:51:55.372Z,101363
2016-12-05T07:52:56.704Z,101363
2016-12-05T07:53:55.450Z,101358
2016-12-05T07:54:56.830Z,101360
2016-12-05T07:55:55.546Z,101360
2016-12-05T07:56:56.939Z,101359
2016-12-05T07:57:55.691Z,101354
2016-12-05T07:58:57.065Z,101358
2016-12-05T07:59:57.114Z,101356
2016-12-05T08:00:57.197Z,101358
2016-12-05T08:01:56.600Z,101355
2016-12-05T08:02:57.321Z,101361
2016-12-05T08:03:55.989Z,101357
2016-12-05T08:04:56.062Z,101353
2016-12-05T08:05:56.726Z,101362
2016-12-05T08:06:56.124Z,101354
2016-12-05T08:07:57.558Z,101356
2016-12-05T08:08:57.022Z,101347
2016-12-05T08:09:59.450Z,101356
2016-12-05T08:10:57.681Z,101359
2016-12-05T08:11:57.157Z,101359
2016-12-05T08:12:57.454Z,101359
2016-12-05T08:13:56.569Z,101357
2016-12-05T08:14:57.123Z,101356
2016-12-05T08:15:58.463Z,101355
2016-12-05T08:16:57.797Z,101351
2016-12-05T08:17:56.727Z,101367
2016-12-05T08:18:58.091Z,101355
2016-12-05T08:19:58.173Z,101368
2016-12-05T08:20:57.895Z,101358
2016-12-05T08:21:58.269Z,101359
2016-12-05T08:22:58.321Z,101360
2016-12-05T08:23:58.368Z,101363
2016-12-05T08:24:57.008Z,101362
2016-12-05T08:25:57.076Z,101360
2016-12-05T08:26:58.461Z,101362
2016-12-05T08:27:57.162Z,101364
2016-12-05T08:28:58.576Z,101363
2016-12-05T08:29:58.619Z,101363
2016-12-05T08:30:57.318Z,101367
2016-12-05T08:31:58.751Z,101363
2016-12-05T08:32:58.821Z,101360
2016-12-05T08:33:58.909Z,101365
2016-12-05T08:34:58.172Z,101364
2016-12-05T08:35:59.704Z,101366
2016-12-05T08:36:58.343Z,101367
2016-12-05T08:37:59.028Z,101369
2016-12-05T08:38:59.094Z,101366
2016-12-05T08:39:59.124Z,101362
2016-12-05T08:40:59.719Z,101362
2016-12-05T08:41:58.539Z,101364
2016-12-05T08:42:58.543Z,101365
2016-12-05T08:44:01.247Z,101355
2016-12-05T08:44:59.421Z,101369
2016-12-05T08:45:58.222Z,101365
2016-12-05T08:46:59.513Z,101359
2016-12-05T08:47:58.926Z,101372
2016-12-05T08:48:59.595Z,101364
2016-12-05T08:50:00.224Z,101374
2016-12-05T08:51:00.863Z,101367
2016-12-05T08:51:59.813Z,101370
2016-12-05T08:52:59.897Z,101364
2016-12-05T08:53:59.785Z,101362
2016-12-05T08:54:59.639Z,101364
2016-12-05T08:56:05.878Z,101361
2016-12-05T08:57:01.726Z,101362
2016-12-05T08:58:02.912Z,101364
2016-12-05T08:59:00.681Z,101369
2016-12-05T09:00:00.187Z,101368
2016-12-05T09:01:00.216Z,101361
2016-12-05T09:02:00.233Z,101363
2016-12-05T09:03:00.219Z,101357
2016-12-05T09:04:01.408Z,101360
2016-12-05T09:04:59.035Z,101366
2016-12-05T09:05:59.059Z,101366
2016-12-05T09:06:59.075Z,101362
2016-12-05T09:07:59.205Z,101365
2016-12-05T09:08:59.202Z,101359
2016-12-05T09:10:01.582Z,101364
2016-12-05T09:11:01.172Z,101375
2016-12-05T09:11:59.293Z,101357
2016-12-05T09:12:59.945Z,101369
2016-12-05T09:14:00.732Z,101368
2016-12-05T09:15:01.393Z,101369
2016-12-05T09:16:00.822Z,101369
2016-12-05T09:17:00.275Z,101377
2016-12-05T09:18:00.221Z,101372
2016-12-05T09:19:01.723Z,101369
2016-12-05T09:19:59.615Z,101373
2016-12-05T09:21:01.019Z,101374
2016-12-05T09:21:59.757Z,101372
2016-12-05T09:22:59.792Z,101374
2016-12-05T09:24:01.857Z,101373
2016-12-05T09:25:00.836Z,101373
2016-12-05T09:26:01.333Z,101375
2016-12-05T09:27:01.361Z,101362
2016-12-05T09:28:00.015Z,101373
2016-12-05T09:29:00.056Z,101369
2016-12-05T09:30:00.154Z,101369
2016-12-05T09:31:01.566Z,101362
2016-12-05T09:32:02.744Z,101360
2016-12-05T09:33:03.978Z,101368
2016-12-05T09:34:01.655Z,101367
2016-12-05T09:35:00.955Z,101369
2016-12-05T09:36:03.775Z,101367
2016-12-05T09:37:00.403Z,101373
2016-12-05T09:38:00.397Z,101374
2016-12-05T09:39:02.244Z,101375
2016-12-05T09:40:01.698Z,101377
2016-12-05T09:41:03.190Z,101376
2016-12-05T09:42:05.062Z,101377
2016-12-05T09:43:06.648Z,101380
2016-12-05T09:44:01.775Z,101369
2016-12-05T09:45:02.739Z,101370
2016-12-05T09:46:03.998Z,101382
2016-12-05T09:47:03.267Z,101375
2016-12-05T09:48:03.123Z,101374
2016-12-05T09:49:00.941Z,101380
2016-12-05T09:50:00.919Z,101380
2016-12-05T09:51:00.951Z,101368
2016-12-05T09:52:02.311Z,101371
2016-12-05T09:53:01.072Z,101376
2016-12-05T09:54:02.513Z,101382
2016-12-05T09:55:01.227Z,101380
2016-12-05T09:56:02.569Z,101375
2016-12-05T09:57:04.566Z,101375
2016-12-05T09:58:02.553Z,101375
2016-12-05T09:59:02.711Z,101378
2016-12-05T10:00:01.933Z,101374
2016-12-05T10:01:01.309Z,101374
2016-12-05T10:02:02.927Z,101365
2016-12-05T10:03:02.761Z,101365
2016-12-05T10:04:03.567Z,101369
2016-12-05T10:06:04.297Z,101372
2016-12-05T10:07:02.930Z,101366
2016-12-05T10:08:04.634Z,101368
2016-12-05T10:09:06.493Z,101372
2016-12-05T10:10:02.991Z,101364
2016-12-05T10:11:05.000Z,101362
2016-12-05T10:12:02.583Z,101362
2016-12-05T10:13:05.613Z,101370
2016-12-05T10:14:06.065Z,101363
2016-12-05T10:15:08.297Z,101361
2016-12-05T10:16:07.504Z,101363
2016-12-05T10:17:04.594Z,101363
2016-12-05T10:18:03.660Z,101371
2016-12-05T10:19:04.467Z,101374
2016-12-05T10:20:04.869Z,101370
2016-12-05T10:21:02.582Z,101362
2016-12-05T10:22:08.725Z,101362
2016-12-05T10:23:08.756Z,101364
2016-12-05T10:24:16.243Z,101371
2016-12-05T10:25:12.049Z,101366
2016-12-05T10:26:11.118Z,101381
2016-12-05T10:27:14.453Z,101377
2016-12-05T10:28:18.703Z,101376
2016-12-05T10:29:17.470Z,101378
2016-12-05T10:30:13.400Z,101374
2016-12-05T10:31:10.843Z,101376
2016-12-05T10:32:11.598Z,101379
2016-12-05T10:33:07.918Z,101374
2016-12-05T10:34:07.800Z,101376
2016-12-05T10:35:03.294Z,101375
2016-12-05T10:36:02.779Z,101372
2016-12-05T10:37:05.723Z,101371
2016-12-05T10:38:08.317Z,101372
2016-12-05T10:39:12.118Z,101377
2016-12-05T10:40:07.363Z,101380
2016-12-05T10:41:06.756Z,101370
2016-12-05T10:42:09.773Z,101368
2016-12-05T10:43:06.210Z,101371
2016-12-05T10:44:07.733Z,101371
2016-12-05T10:45:08.878Z,101370
2016-12-05T10:46:06.940Z,101372
2016-12-05T10:47:06.181Z,101370
2016-12-05T10:48:07.940Z,101362
2016-12-05T10:49:04.150Z,101362
2016-12-05T10:50:07.811Z,101368
2016-12-05T10:51:04.751Z,101369
2016-12-05T10:52:08.975Z,101369
2016-12-05T10:53:06.073Z,101363
2016-12-05T10:54:05.392Z,101369
2016-12-05T10:55:04.703Z,101371
2016-12-05T10:56:04.751Z,101372
2016-12-05T10:57:05.473Z,101362
2016-12-05T10:58:06.289Z,101377
2016-12-05T10:59:05.862Z,101368
2016-12-05T11:00:04.409Z,101370
2016-12-05T11:01:03.858Z,101311
2016-12-05T11:02:07.660Z,101373
2016-12-05T11:03:06.300Z,101378
2016-12-05T11:04:09.671Z,101373
2016-12-05T11:05:04.704Z,101373
2016-12-05T11:06:13.445Z,101375
2016-12-05T11:07:06.379Z,101365
2016-12-05T11:08:09.743Z,101377
2016-12-05T11:09:10.247Z,101370
2016-12-05T11:10:08.993Z,101373
2016-12-05T11:11:10.532Z,101368
2016-12-05T11:12:07.196Z,101373
2016-12-05T11:13:07.836Z,101372
2016-12-05T11:14:10.744Z,101367
2016-12-05T11:15:08.327Z,101364
2016-12-05T11:16:08.613Z,101362
2016-12-05T11:17:05.677Z,101369
2016-12-05T11:18:06.860Z,101364
2016-12-05T11:19:07.999Z,101363
2016-12-05T11:20:08.563Z,101365
2016-12-05T11:21:10.976Z,101363
2016-12-05T11:22:08.747Z,101367
2016-12-05T11:23:09.539Z,101363
2016-12-05T11:24:09.424Z,101361
2016-12-05T11:25:10.824Z,101356
2016-12-05T11:26:06.235Z,101363
2016-12-05T11:27:08.055Z,101366
2016-12-05T11:28:07.164Z,101363
2016-12-05T11:29:13.800Z,101366
2016-12-05T11:30:07.094Z,101358
2016-12-05T11:31:05.162Z,101368
2016-12-05T11:32:05.811Z,101366
2016-12-05T11:33:05.192Z,101362
2016-12-05T11:34:05.815Z,101365
2016-12-05T11:35:05.840Z,101361
2016-12-05T11:36:07.126Z,101363
2016-12-05T11:37:08.573Z,101357
2016-12-05T11:38:07.515Z,101358
2016-12-05T11:39:06.661Z,101351
2016-12-05T11:40:06.297Z,101351
2016-12-05T11:41:07.465Z,101349
2016-12-05T11:42:06.365Z,101350
2016-12-05T11:43:07.416Z,101344
2016-12-05T11:44:07.603Z,101345
2016-12-05T11:45:07.209Z,101340
2016-12-05T11:46:06.041Z,101341
2016-12-05T11:47:06.704Z,101331
2016-12-05T11:48:08.772Z,101341
2016-12-05T11:49:09.358Z,101341
2016-12-05T11:50:07.807Z,101340
2016-12-05T11:51:10.109Z,101335
2016-12-05T11:52:08.870Z,101346
2016-12-05T11:53:08.006Z,101341
2016-12-05T11:54:08.729Z,101338
2016-12-05T11:55:08.049Z,101327
2016-12-05T11:56:08.950Z,101338
2016-12-05T11:57:08.748Z,101338
2016-12-05T11:58:10.295Z,101332
2016-12-05T11:59:08.233Z,101321
2016-12-05T12:00:09.613Z,101331
2016-12-05T12:01:14.836Z,101328
2016-12-05T12:02:08.081Z,101328
2016-12-05T12:03:09.121Z,101332
2016-12-05T12:04:10.041Z,101337
2016-12-05T12:05:09.019Z,101336
2016-12-05T12:06:10.276Z,101337
2016-12-05T12:07:09.075Z,101336
2016-12-05T12:08:10.030Z,101333
2016-12-05T12:09:11.078Z,101326
2016-12-05T12:10:10.392Z,101334
2016-12-05T12:11:09.137Z,101339
2016-12-05T12:12:08.352Z,101339
2016-12-05T12:13:08.923Z,101337
2016-12-05T12:14:08.403Z,101341
2016-12-05T12:15:09.972Z,101338
2016-12-05T12:16:10.706Z,101344
2016-12-05T12:17:08.692Z,101338
2016-12-05T12:18:09.890Z,101339
2016-12-05T12:19:10.414Z,101339
2016-12-05T12:20:10.973Z,101340
2016-12-05T12:21:08.276Z,101335
2016-12-05T12:22:07.684Z,101339
2016-12-05T12:23:08.803Z,101328
2016-12-05T12:24:07.781Z,101334
2016-12-05T12:25:08.849Z,101334
2016-12-05T12:26:09.459Z,101335
2016-12-05T12:27:07.877Z,101323
2016-12-05T12:28:08.457Z,101333
2016-12-05T12:29:08.435Z,101331
2016-12-05T12:30:08.550Z,101331
2016-12-05T12:31:09.083Z,101327
2016-12-05T12:32:09.057Z,101324